sensor_id;sensor_type;location;lat;lon;timestamp;P1;durP1;ratioP1;P2;durP2;ratioP2
45318;SDS011;31057;48.498;32.260;2022-11-20T00:01:51;31.67;;;21.70;;
45318;SDS011;31057;48.498;32.260;2022-11-20T00:03:53;31.17;;;22.75;;
45318;SDS011;31057;48.498;32.260;2022-11-20T00:06:02;36.08;;;23.92;;
45318;SDS011;31057;48.498;32.260;2022-11-20T00:08:06;38.40;;;25.58;;
45318;SDS011;31057;48.498;32.260;2022-11-20T00:10:08;40.78;;;26.98;;
45318;SDS011;31057;48.498;32.260;2022-11-20T00:12:10;38.88;;;26.42;;
45318;SDS011;31057;48.498;32.260;2022-11-20T00:16:14;34.67;;;22.80;;
45318;SDS011;31057;48.498;32.260;2022-11-20T00:18:17;33.85;;;22.95;;
45318;SDS011;31057;48.498;32.260;2022-11-20T00:20:19;30.95;;;21.67;;
45318;SDS011;31057;48.498;32.260;2022-11-20T00:22:21;32.35;;;22.70;;
45318;SDS011;31057;48.498;32.260;2022-11-20T00:24:23;27.90;;;20.38;;
45318;SDS011;31057;48.498;32.260;2022-11-20T00:26:25;26.17;;;19.00;;
45318;SDS011;31057;48.498;32.260;2022-11-20T00:28:28;26.15;;;19.50;;
45318;SDS011;31057;48.498;32.260;2022-11-20T00:30:30;28.77;;;20.48;;
45318;SDS011;31057;48.498;32.260;2022-11-20T00:32:32;31.60;;;21.30;;
45318;SDS011;31057;48.498;32.260;2022-11-20T00:36:35;24.58;;;18.90;;
45318;SDS011;31057;48.498;32.260;2022-11-20T00:38:37;27.30;;;18.65;;
45318;SDS011;31057;48.498;32.260;2022-11-20T00:40:39;30.23;;;20.63;;
45318;SDS011;31057;48.498;32.260;2022-11-20T00:42:41;26.50;;;18.15;;
45318;SDS011;31057;48.498;32.260;2022-11-20T00:44:43;29.60;;;19.45;;
45318;SDS011;31057;48.498;32.260;2022-11-20T00:46:45;24.98;;;18.25;;
45318;SDS011;31057;48.498;32.260;2022-11-20T00:48:46;22.63;;;16.35;;
45318;SDS011;31057;48.498;32.260;2022-11-20T00:50:48;32.45;;;20.55;;
45318;SDS011;31057;48.498;32.260;2022-11-20T00:52:50;25.50;;;18.80;;
45318;SDS011;31057;48.498;32.260;2022-11-20T00:54:53;27.05;;;20.02;;
45318;SDS011;31057;48.498;32.260;2022-11-20T00:56:55;27.45;;;19.90;;
45318;SDS011;31057;48.498;32.260;2022-11-20T01:03:13;26.80;;;18.00;;
45318;SDS011;31057;48.498;32.260;2022-11-20T01:05:15;24.33;;;16.85;;
45318;SDS011;31057;48.498;32.260;2022-11-20T01:07:17;27.10;;;19.75;;
45318;SDS011;31057;48.498;32.260;2022-11-20T01:09:19;25.60;;;18.10;;
45318;SDS011;31057;48.498;32.260;2022-11-20T01:11:22;23.90;;;17.30;;
45318;SDS011;31057;48.498;32.260;2022-11-20T01:13:30;23.42;;;15.60;;
45318;SDS011;31057;48.498;32.260;2022-11-20T01:15:38;22.98;;;16.92;;
45318;SDS011;31057;48.498;32.260;2022-11-20T01:17:40;21.55;;;16.48;;
45318;SDS011;31057;48.498;32.260;2022-11-20T01:19:42;23.67;;;17.45;;
45318;SDS011;31057;48.498;32.260;2022-11-20T01:21:44;21.77;;;17.58;;
45318;SDS011;31057;48.498;32.260;2022-11-20T01:23:47;21.52;;;16.45;;
45318;SDS011;31057;48.498;32.260;2022-11-20T01:25:50;21.70;;;16.35;;
45318;SDS011;31057;48.498;32.260;2022-11-20T01:27:52;20.17;;;15.32;;
45318;SDS011;31057;48.498;32.260;2022-11-20T01:32:01;20.75;;;15.15;;
45318;SDS011;31057;48.498;32.260;2022-11-20T01:34:04;20.60;;;14.65;;
45318;SDS011;31057;48.498;32.260;2022-11-20T01:36:10;19.55;;;14.73;;
45318;SDS011;31057;48.498;32.260;2022-11-20T01:38:14;20.92;;;16.02;;
45318;SDS011;31057;48.498;32.260;2022-11-20T01:40:17;18.30;;;14.15;;
45318;SDS011;31057;48.498;32.260;2022-11-20T01:42:19;21.50;;;15.98;;
45318;SDS011;31057;48.498;32.260;2022-11-20T01:44:43;20.65;;;15.27;;
45318;SDS011;31057;48.498;32.260;2022-11-20T01:46:55;20.02;;;15.88;;
45318;SDS011;31057;48.498;32.260;2022-11-20T01:51:25;20.80;;;16.70;;
45318;SDS011;31057;48.498;32.260;2022-11-20T01:53:50;20.85;;;14.18;;
45318;SDS011;31057;48.498;32.260;2022-11-20T01:55:55;18.70;;;14.13;;
45318;SDS011;31057;48.498;32.260;2022-11-20T01:58:00;18.20;;;13.75;;
45318;SDS011;31057;48.498;32.260;2022-11-20T02:00:05;17.45;;;14.02;;
45318;SDS011;31057;48.498;32.260;2022-11-20T02:02:09;20.75;;;15.15;;
45318;SDS011;31057;48.498;32.260;2022-11-20T02:08:16;17.77;;;13.63;;
45318;SDS011;31057;48.498;32.260;2022-11-20T02:10:20;17.92;;;13.80;;
45318;SDS011;31057;48.498;32.260;2022-11-20T02:12:22;19.50;;;15.57;;
45318;SDS011;31057;48.498;32.260;2022-11-20T02:14:42;21.35;;;16.38;;
45318;SDS011;31057;48.498;32.260;2022-11-20T02:16:45;19.10;;;15.45;;
45318;SDS011;31057;48.498;32.260;2022-11-20T02:18:48;29.63;;;17.77;;
45318;SDS011;31057;48.498;32.260;2022-11-20T02:21:03;26.75;;;18.15;;
45318;SDS011;31057;48.498;32.260;2022-11-20T02:25:45;20.58;;;16.13;;
45318;SDS011;31057;48.498;32.260;2022-11-20T02:27:49;22.67;;;17.40;;
45318;SDS011;31057;48.498;32.260;2022-11-20T02:32:03;23.08;;;17.55;;
45318;SDS011;31057;48.498;32.260;2022-11-20T02:36:07;21.40;;;14.82;;
45318;SDS011;31057;48.498;32.260;2022-11-20T02:38:13;17.90;;;14.05;;
45318;SDS011;31057;48.498;32.260;2022-11-20T02:40:15;23.85;;;17.27;;
45318;SDS011;31057;48.498;32.260;2022-11-20T02:42:18;20.38;;;16.80;;
45318;SDS011;31057;48.498;32.260;2022-11-20T02:44:20;21.42;;;16.27;;
45318;SDS011;31057;48.498;32.260;2022-11-20T02:46:22;24.27;;;18.10;;
45318;SDS011;31057;48.498;32.260;2022-11-20T02:48:24;22.92;;;17.35;;
45318;SDS011;31057;48.498;32.260;2022-11-20T02:50:28;23.98;;;18.42;;
45318;SDS011;31057;48.498;32.260;2022-11-20T02:52:30;24.33;;;19.15;;
45318;SDS011;31057;48.498;32.260;2022-11-20T02:54:32;27.65;;;19.17;;
45318;SDS011;31057;48.498;32.260;2022-11-20T02:58:38;26.35;;;19.60;;
45318;SDS011;31057;48.498;32.260;2022-11-20T03:00:41;25.00;;;18.58;;
45318;SDS011;31057;48.498;32.260;2022-11-20T03:02:43;25.77;;;19.05;;
45318;SDS011;31057;48.498;32.260;2022-11-20T03:04:46;30.48;;;20.70;;
45318;SDS011;31057;48.498;32.260;2022-11-20T03:06:47;29.08;;;20.88;;
45318;SDS011;31057;48.498;32.260;2022-11-20T03:08:49;30.13;;;23.33;;
45318;SDS011;31057;48.498;32.260;2022-11-20T03:10:51;31.70;;;21.60;;
45318;SDS011;31057;48.498;32.260;2022-11-20T03:14:56;27.75;;;19.60;;
45318;SDS011;31057;48.498;32.260;2022-11-20T03:16:58;27.30;;;19.70;;
45318;SDS011;31057;48.498;32.260;2022-11-20T03:19:00;27.85;;;21.17;;
45318;SDS011;31057;48.498;32.260;2022-11-20T03:21:02;26.17;;;19.73;;
45318;SDS011;31057;48.498;32.260;2022-11-20T03:23:04;26.85;;;18.65;;
45318;SDS011;31057;48.498;32.260;2022-11-20T03:25:07;29.40;;;19.52;;
45318;SDS011;31057;48.498;32.260;2022-11-20T03:27:08;27.85;;;21.05;;
45318;SDS011;31057;48.498;32.260;2022-11-20T03:29:10;35.40;;;21.63;;
45318;SDS011;31057;48.498;32.260;2022-11-20T03:31:13;30.75;;;21.05;;
45318;SDS011;31057;48.498;32.260;2022-11-20T03:33:17;42.33;;;24.65;;
45318;SDS011;31057;48.498;32.260;2022-11-20T03:35:19;37.85;;;26.90;;
45318;SDS011;31057;48.498;32.260;2022-11-20T03:39:22;38.00;;;24.55;;
45318;SDS011;31057;48.498;32.260;2022-11-20T03:41:26;41.65;;;27.98;;
45318;SDS011;31057;48.498;32.260;2022-11-20T03:43:28;41.80;;;28.88;;
45318;SDS011;31057;48.498;32.260;2022-11-20T03:45:30;31.55;;;23.17;;
45318;SDS011;31057;48.498;32.260;2022-11-20T03:47:32;32.40;;;24.52;;
45318;SDS011;31057;48.498;32.260;2022-11-20T03:49:34;30.90;;;21.85;;
45318;SDS011;31057;48.498;32.260;2022-11-20T03:51:36;31.00;;;20.85;;
45318;SDS011;31057;48.498;32.260;2022-11-20T03:55:41;27.70;;;17.90;;
45318;SDS011;31057;48.498;32.260;2022-11-20T03:57:43;22.98;;;16.63;;
45318;SDS011;31057;48.498;32.260;2022-11-20T03:59:45;28.40;;;22.05;;
45318;SDS011;31057;48.498;32.260;2022-11-20T04:01:47;30.92;;;22.42;;
45318;SDS011;31057;48.498;32.260;2022-11-20T04:03:51;27.02;;;19.50;;
45318;SDS011;31057;48.498;32.260;2022-11-20T04:05:54;28.83;;;20.50;;
45318;SDS011;31057;48.498;32.260;2022-11-20T04:07:57;29.75;;;22.00;;
45318;SDS011;31057;48.498;32.260;2022-11-20T04:09:59;27.08;;;21.10;;
45318;SDS011;31057;48.498;32.260;2022-11-20T04:12:01;30.95;;;22.83;;
45318;SDS011;31057;48.498;32.260;2022-11-20T04:14:03;34.20;;;23.45;;
45318;SDS011;31057;48.498;32.260;2022-11-20T04:16:07;32.15;;;24.33;;
45318;SDS011;31057;48.498;32.260;2022-11-20T04:18:10;31.08;;;23.02;;
45318;SDS011;31057;48.498;32.260;2022-11-20T04:20:12;30.52;;;19.58;;
45318;SDS011;31057;48.498;32.260;2022-11-20T04:22:14;32.40;;;22.83;;
45318;SDS011;31057;48.498;32.260;2022-11-20T04:24:16;38.15;;;24.17;;
45318;SDS011;31057;48.498;32.260;2022-11-20T04:26:18;30.90;;;19.58;;
45318;SDS011;31057;48.498;32.260;2022-11-20T04:28:20;30.15;;;21.10;;
45318;SDS011;31057;48.498;32.260;2022-11-20T04:30:22;31.13;;;22.25;;
45318;SDS011;31057;48.498;32.260;2022-11-20T04:32:24;31.25;;;22.60;;
45318;SDS011;31057;48.498;32.260;2022-11-20T04:34:26;28.05;;;21.25;;
45318;SDS011;31057;48.498;32.260;2022-11-20T04:36:28;31.85;;;23.63;;
45318;SDS011;31057;48.498;32.260;2022-11-20T04:38:30;33.00;;;23.55;;
45318;SDS011;31057;48.498;32.260;2022-11-20T04:40:33;30.10;;;22.40;;
45318;SDS011;31057;48.498;32.260;2022-11-20T04:42:34;32.22;;;22.73;;
45318;SDS011;31057;48.498;32.260;2022-11-20T04:46:40;30.63;;;19.40;;
45318;SDS011;31057;48.498;32.260;2022-11-20T04:48:43;33.45;;;22.27;;
45318;SDS011;31057;48.498;32.260;2022-11-20T04:50:45;33.92;;;24.48;;
45318;SDS011;31057;48.498;32.260;2022-11-20T04:54:50;33.30;;;21.50;;
45318;SDS011;31057;48.498;32.260;2022-11-20T04:56:54;30.23;;;20.67;;
45318;SDS011;31057;48.498;32.260;2022-11-20T04:58:59;34.88;;;22.42;;
45318;SDS011;31057;48.498;32.260;2022-11-20T05:03:17;32.05;;;20.75;;
45318;SDS011;31057;48.498;32.260;2022-11-20T05:05:19;34.58;;;21.75;;
45318;SDS011;31057;48.498;32.260;2022-11-20T05:07:21;35.72;;;23.67;;
45318;SDS011;31057;48.498;32.260;2022-11-20T05:11:25;26.80;;;18.58;;
45318;SDS011;31057;48.498;32.260;2022-11-20T05:13:26;36.55;;;24.23;;
45318;SDS011;31057;48.498;32.260;2022-11-20T05:15:29;33.25;;;22.02;;
45318;SDS011;31057;48.498;32.260;2022-11-20T05:17:31;34.13;;;22.67;;
45318;SDS011;31057;48.498;32.260;2022-11-20T05:19:32;33.53;;;21.58;;
45318;SDS011;31057;48.498;32.260;2022-11-20T05:21:34;33.42;;;20.83;;
45318;SDS011;31057;48.498;32.260;2022-11-20T05:23:36;33.17;;;20.88;;
45318;SDS011;31057;48.498;32.260;2022-11-20T05:25:39;32.45;;;18.58;;
45318;SDS011;31057;48.498;32.260;2022-11-20T05:27:41;34.78;;;20.02;;
45318;SDS011;31057;48.498;32.260;2022-11-20T05:29:43;36.20;;;22.25;;
45318;SDS011;31057;48.498;32.260;2022-11-20T05:31:45;41.58;;;24.38;;
45318;SDS011;31057;48.498;32.260;2022-11-20T05:33:47;39.25;;;24.63;;
45318;SDS011;31057;48.498;32.260;2022-11-20T05:35:49;37.03;;;24.00;;
45318;SDS011;31057;48.498;32.260;2022-11-20T05:37:51;38.15;;;23.80;;
45318;SDS011;31057;48.498;32.260;2022-11-20T05:39:53;39.15;;;23.23;;
45318;SDS011;31057;48.498;32.260;2022-11-20T05:41:55;42.28;;;27.15;;
45318;SDS011;31057;48.498;32.260;2022-11-20T05:44:15;44.55;;;25.52;;
45318;SDS011;31057;48.498;32.260;2022-11-20T05:46:18;48.47;;;29.23;;
45318;SDS011;31057;48.498;32.260;2022-11-20T05:48:29;54.95;;;31.08;;
45318;SDS011;31057;48.498;32.260;2022-11-20T05:50:31;53.13;;;31.00;;
45318;SDS011;31057;48.498;32.260;2022-11-20T05:52:33;53.47;;;32.05;;
45318;SDS011;31057;48.498;32.260;2022-11-20T05:54:35;51.30;;;32.47;;
45318;SDS011;31057;48.498;32.260;2022-11-20T05:56:37;49.53;;;29.55;;
45318;SDS011;31057;48.498;32.260;2022-11-20T05:58:39;50.70;;;31.05;;
45318;SDS011;31057;48.498;32.260;2022-11-20T06:00:41;49.25;;;30.80;;
45318;SDS011;31057;48.498;32.260;2022-11-20T06:02:43;49.22;;;30.80;;
45318;SDS011;31057;48.498;32.260;2022-11-20T06:04:45;50.08;;;29.02;;
45318;SDS011;31057;48.498;32.260;2022-11-20T06:06:47;50.20;;;30.75;;
45318;SDS011;31057;48.498;32.260;2022-11-20T06:08:49;45.60;;;28.92;;
45318;SDS011;31057;48.498;32.260;2022-11-20T06:12:52;41.45;;;24.17;;
45318;SDS011;31057;48.498;32.260;2022-11-20T06:14:54;42.55;;;26.60;;
45318;SDS011;31057;48.498;32.260;2022-11-20T06:16:56;41.40;;;26.33;;
45318;SDS011;31057;48.498;32.260;2022-11-20T06:21:04;43.45;;;27.23;;
45318;SDS011;31057;48.498;32.260;2022-11-20T06:25:14;44.90;;;27.98;;
45318;SDS011;31057;48.498;32.260;2022-11-20T06:27:16;38.63;;;22.73;;
45318;SDS011;31057;48.498;32.260;2022-11-20T06:29:18;41.83;;;26.40;;
45318;SDS011;31057;48.498;32.260;2022-11-20T06:31:21;39.47;;;24.95;;
45318;SDS011;31057;48.498;32.260;2022-11-20T06:33:24;44.15;;;26.60;;
45318;SDS011;31057;48.498;32.260;2022-11-20T06:35:27;36.40;;;23.58;;
45318;SDS011;31057;48.498;32.260;2022-11-20T06:37:28;35.72;;;25.23;;
45318;SDS011;31057;48.498;32.260;2022-11-20T06:39:30;36.45;;;23.48;;
45318;SDS011;31057;48.498;32.260;2022-11-20T06:41:32;36.95;;;24.65;;
45318;SDS011;31057;48.498;32.260;2022-11-20T06:43:34;42.67;;;28.95;;
45318;SDS011;31057;48.498;32.260;2022-11-20T06:45:36;40.92;;;26.27;;
45318;SDS011;31057;48.498;32.260;2022-11-20T06:47:38;38.75;;;24.27;;
45318;SDS011;31057;48.498;32.260;2022-11-20T06:49:40;41.22;;;26.90;;
45318;SDS011;31057;48.498;32.260;2022-11-20T06:51:42;40.88;;;24.27;;
45318;SDS011;31057;48.498;32.260;2022-11-20T06:53:44;42.33;;;26.48;;
45318;SDS011;31057;48.498;32.260;2022-11-20T06:57:48;42.47;;;27.67;;
45318;SDS011;31057;48.498;32.260;2022-11-20T06:59:56;44.80;;;25.73;;
45318;SDS011;31057;48.498;32.260;2022-11-20T07:01:57;48.30;;;29.40;;
45318;SDS011;31057;48.498;32.260;2022-11-20T07:04:00;50.17;;;28.23;;
45318;SDS011;31057;48.498;32.260;2022-11-20T07:08:04;47.90;;;29.15;;
45318;SDS011;31057;48.498;32.260;2022-11-20T07:10:06;43.45;;;28.42;;
45318;SDS011;31057;48.498;32.260;2022-11-20T07:12:09;35.97;;;22.63;;
45318;SDS011;31057;48.498;32.260;2022-11-20T07:14:10;39.40;;;23.23;;
45318;SDS011;31057;48.498;32.260;2022-11-20T07:16:12;44.00;;;28.38;;
45318;SDS011;31057;48.498;32.260;2022-11-20T07:18:14;44.97;;;27.75;;
45318;SDS011;31057;48.498;32.260;2022-11-20T07:20:16;46.35;;;27.48;;
45318;SDS011;31057;48.498;32.260;2022-11-20T07:22:18;51.10;;;30.77;;
45318;SDS011;31057;48.498;32.260;2022-11-20T07:24:22;44.20;;;28.63;;
45318;SDS011;31057;48.498;32.260;2022-11-20T07:26:24;40.15;;;25.40;;
45318;SDS011;31057;48.498;32.260;2022-11-20T07:28:26;41.90;;;25.88;;
45318;SDS011;31057;48.498;32.260;2022-11-20T07:30:28;37.90;;;24.10;;
45318;SDS011;31057;48.498;32.260;2022-11-20T07:32:30;41.58;;;26.85;;
45318;SDS011;31057;48.498;32.260;2022-11-20T07:34:32;46.97;;;29.95;;
45318;SDS011;31057;48.498;32.260;2022-11-20T07:36:34;48.92;;;32.25;;
45318;SDS011;31057;48.498;32.260;2022-11-20T07:40:38;45.72;;;28.08;;
45318;SDS011;31057;48.498;32.260;2022-11-20T07:42:50;48.38;;;29.48;;
45318;SDS011;31057;48.498;32.260;2022-11-20T07:44:53;48.42;;;30.50;;
45318;SDS011;31057;48.498;32.260;2022-11-20T07:46:54;45.17;;;29.77;;
45318;SDS011;31057;48.498;32.260;2022-11-20T07:48:56;43.83;;;26.05;;
45318;SDS011;31057;48.498;32.260;2022-11-20T07:50:58;47.17;;;28.42;;
45318;SDS011;31057;48.498;32.260;2022-11-20T07:53:01;41.70;;;25.83;;
45318;SDS011;31057;48.498;32.260;2022-11-20T07:55:04;38.40;;;25.05;;
45318;SDS011;31057;48.498;32.260;2022-11-20T07:57:07;41.05;;;24.15;;
45318;SDS011;31057;48.498;32.260;2022-11-20T07:59:09;47.58;;;28.40;;
45318;SDS011;31057;48.498;32.260;2022-11-20T08:01:13;43.10;;;27.35;;
45318;SDS011;31057;48.498;32.260;2022-11-20T08:05:24;42.13;;;26.48;;
45318;SDS011;31057;48.498;32.260;2022-11-20T08:07:26;48.75;;;28.55;;
45318;SDS011;31057;48.498;32.260;2022-11-20T08:09:28;44.35;;;26.75;;
45318;SDS011;31057;48.498;32.260;2022-11-20T08:13:50;38.95;;;24.17;;
45318;SDS011;31057;48.498;32.260;2022-11-20T08:16:10;39.58;;;25.98;;
45318;SDS011;31057;48.498;32.260;2022-11-20T08:18:12;35.63;;;22.88;;
45318;SDS011;31057;48.498;32.260;2022-11-20T08:20:32;40.83;;;25.83;;
45318;SDS011;31057;48.498;32.260;2022-11-20T08:22:36;35.72;;;22.13;;
45318;SDS011;31057;48.498;32.260;2022-11-20T08:24:38;32.83;;;22.75;;
45318;SDS011;31057;48.498;32.260;2022-11-20T08:26:40;33.28;;;21.98;;
45318;SDS011;31057;48.498;32.260;2022-11-20T08:28:42;30.63;;;21.38;;
45318;SDS011;31057;48.498;32.260;2022-11-20T08:30:45;28.02;;;18.65;;
45318;SDS011;31057;48.498;32.260;2022-11-20T08:34:49;28.08;;;18.40;;
45318;SDS011;31057;48.498;32.260;2022-11-20T08:38:53;26.25;;;17.92;;
45318;SDS011;31057;48.498;32.260;2022-11-20T08:40:57;26.90;;;18.83;;
45318;SDS011;31057;48.498;32.260;2022-11-20T08:43:18;30.23;;;20.83;;
45318;SDS011;31057;48.498;32.260;2022-11-20T08:45:20;28.08;;;18.63;;
45318;SDS011;31057;48.498;32.260;2022-11-20T08:49:24;26.73;;;19.40;;
45318;SDS011;31057;48.498;32.260;2022-11-20T08:51:26;26.92;;;19.20;;
45318;SDS011;31057;48.498;32.260;2022-11-20T08:53:28;31.05;;;20.85;;
45318;SDS011;31057;48.498;32.260;2022-11-20T08:55:30;32.83;;;22.30;;
45318;SDS011;31057;48.498;32.260;2022-11-20T08:59:34;27.90;;;19.85;;
45318;SDS011;31057;48.498;32.260;2022-11-20T09:01:56;28.55;;;20.05;;
45318;SDS011;31057;48.498;32.260;2022-11-20T09:03:58;27.05;;;19.63;;
45318;SDS011;31057;48.498;32.260;2022-11-20T09:06:03;33.53;;;20.98;;
45318;SDS011;31057;48.498;32.260;2022-11-20T09:08:07;32.58;;;22.10;;
45318;SDS011;31057;48.498;32.260;2022-11-20T09:12:24;32.92;;;20.30;;
45318;SDS011;31057;48.498;32.260;2022-11-20T09:14:26;32.28;;;20.58;;
45318;SDS011;31057;48.498;32.260;2022-11-20T09:16:30;33.17;;;20.92;;
45318;SDS011;31057;48.498;32.260;2022-11-20T09:18:32;29.50;;;19.83;;
45318;SDS011;31057;48.498;32.260;2022-11-20T09:20:37;32.67;;;21.10;;
45318;SDS011;31057;48.498;32.260;2022-11-20T09:24:41;32.53;;;22.13;;
45318;SDS011;31057;48.498;32.260;2022-11-20T09:26:44;30.70;;;21.63;;
45318;SDS011;31057;48.498;32.260;2022-11-20T09:30:47;29.17;;;21.40;;
45318;SDS011;31057;48.498;32.260;2022-11-20T09:32:49;21.48;;;13.90;;
45318;SDS011;31057;48.498;32.260;2022-11-20T09:34:51;31.85;;;21.92;;
45318;SDS011;31057;48.498;32.260;2022-11-20T09:36:53;30.33;;;20.88;;
45318;SDS011;31057;48.498;32.260;2022-11-20T09:38:55;29.67;;;20.58;;
45318;SDS011;31057;48.498;32.260;2022-11-20T09:40:59;30.65;;;22.05;;
45318;SDS011;31057;48.498;32.260;2022-11-20T09:50:32;28.40;;;19.90;;
45318;SDS011;31057;48.498;32.260;2022-11-20T09:52:47;26.25;;;19.13;;
45318;SDS011;31057;48.498;32.260;2022-11-20T09:55:08;29.73;;;19.23;;
45318;SDS011;31057;48.498;32.260;2022-11-20T09:57:15;27.73;;;18.92;;
45318;SDS011;31057;48.498;32.260;2022-11-20T10:01:44;32.77;;;22.43;;
45318;SDS011;31057;48.498;32.260;2022-11-20T10:06:00;30.25;;;21.48;;
45318;SDS011;31057;48.498;32.260;2022-11-20T10:08:14;32.53;;;22.75;;
45318;SDS011;31057;48.498;32.260;2022-11-20T10:10:26;28.52;;;20.15;;
45318;SDS011;31057;48.498;32.260;2022-11-20T10:22:30;40.67;;;27.02;;
45318;SDS011;31057;48.498;32.260;2022-11-20T10:29:22;36.58;;;25.95;;
45318;SDS011;31057;48.498;32.260;2022-11-20T10:31:40;39.38;;;25.98;;
45318;SDS011;31057;48.498;32.260;2022-11-20T10:33:57;33.83;;;24.27;;
45318;SDS011;31057;48.498;32.260;2022-11-20T10:36:28;39.80;;;26.05;;
45318;SDS011;31057;48.498;32.260;2022-11-20T10:38:36;35.88;;;24.25;;
45318;SDS011;31057;48.498;32.260;2022-11-20T10:40:45;34.28;;;24.00;;
45318;SDS011;31057;48.498;32.260;2022-11-20T10:42:55;40.92;;;26.15;;
45318;SDS011;31057;48.498;32.260;2022-11-20T10:45:13;38.33;;;26.00;;
45318;SDS011;31057;48.498;32.260;2022-11-20T10:47:26;28.63;;;18.83;;
45318;SDS011;31057;48.498;32.260;2022-11-20T10:49:32;38.15;;;27.25;;
45318;SDS011;31057;48.498;32.260;2022-11-20T10:51:37;38.30;;;25.95;;
45318;SDS011;31057;48.498;32.260;2022-11-20T10:54:22;38.35;;;26.67;;
45318;SDS011;31057;48.498;32.260;2022-11-20T10:58:42;33.60;;;21.50;;
45318;SDS011;31057;48.498;32.260;2022-11-20T11:01:05;33.58;;;22.30;;
45318;SDS011;31057;48.498;32.260;2022-11-20T11:03:25;36.67;;;24.63;;
45318;SDS011;31057;48.498;32.260;2022-11-20T11:05:37;35.13;;;24.17;;
45318;SDS011;31057;48.498;32.260;2022-11-20T11:07:42;36.03;;;24.00;;
45318;SDS011;31057;48.498;32.260;2022-11-20T11:09:50;38.88;;;25.60;;
45318;SDS011;31057;48.498;32.260;2022-11-20T11:11:55;35.30;;;23.05;;
45318;SDS011;31057;48.498;32.260;2022-11-20T11:14:07;30.25;;;20.63;;
45318;SDS011;31057;48.498;32.260;2022-11-20T11:16:21;35.83;;;24.60;;
45318;SDS011;31057;48.498;32.260;2022-11-20T11:18:25;31.85;;;20.15;;
45318;SDS011;31057;48.498;32.260;2022-11-20T11:20:31;35.03;;;22.83;;
45318;SDS011;31057;48.498;32.260;2022-11-20T11:22:34;32.22;;;21.42;;
45318;SDS011;31057;48.498;32.260;2022-11-20T11:24:52;35.83;;;25.05;;
45318;SDS011;31057;48.498;32.260;2022-11-20T11:26:59;38.42;;;24.48;;
45318;SDS011;31057;48.498;32.260;2022-11-20T11:29:17;28.70;;;14.38;;
45318;SDS011;31057;48.498;32.260;2022-11-20T11:31:28;35.13;;;22.52;;
45318;SDS011;31057;48.498;32.260;2022-11-20T11:33:32;30.83;;;18.03;;
45318;SDS011;31057;48.498;32.260;2022-11-20T11:35:47;20.83;;;14.90;;
45318;SDS011;31057;48.498;32.260;2022-11-20T11:38:02;27.33;;;16.90;;
45318;SDS011;31057;48.498;32.260;2022-11-20T11:40:08;30.02;;;19.92;;
45318;SDS011;31057;48.498;32.260;2022-11-20T11:42:28;27.60;;;17.67;;
45318;SDS011;31057;48.498;32.260;2022-11-20T11:44:32;31.92;;;18.58;;
45318;SDS011;31057;48.498;32.260;2022-11-20T11:46:54;30.42;;;21.50;;
45318;SDS011;31057;48.498;32.260;2022-11-20T11:51:11;24.73;;;12.55;;
45318;SDS011;31057;48.498;32.260;2022-11-20T11:53:13;27.08;;;17.52;;
45318;SDS011;31057;48.498;32.260;2022-11-20T11:59:46;17.67;;;10.73;;
45318;SDS011;31057;48.498;32.260;2022-11-20T12:02:57;22.00;;;14.05;;
45318;SDS011;31057;48.498;32.260;2022-11-20T12:04:40;28.75;;;17.70;;
45318;SDS011;31057;48.498;32.260;2022-11-20T12:06:50;25.02;;;15.65;;
45318;SDS011;31057;48.498;32.260;2022-11-20T12:08:59;26.60;;;16.67;;
45318;SDS011;31057;48.498;32.260;2022-11-20T12:13:23;21.10;;;10.48;;
45318;SDS011;31057;48.498;32.260;2022-11-20T12:15:33;27.63;;;17.95;;
45318;SDS011;31057;48.498;32.260;2022-11-20T12:17:35;30.20;;;20.27;;
45318;SDS011;31057;48.498;32.260;2022-11-20T12:19:38;32.05;;;20.65;;
45318;SDS011;31057;48.498;32.260;2022-11-20T12:24:04;18.35;;;12.05;;
45318;SDS011;31057;48.498;32.260;2022-11-20T12:26:49;24.35;;;16.13;;
45318;SDS011;31057;48.498;32.260;2022-11-20T12:31:30;27.05;;;17.73;;
45318;SDS011;31057;48.498;32.260;2022-11-20T12:36:56;26.23;;;17.27;;
45318;SDS011;31057;48.498;32.260;2022-11-20T12:44:20;24.27;;;14.02;;
45318;SDS011;31057;48.498;32.260;2022-11-20T12:46:45;24.58;;;16.20;;
45318;SDS011;31057;48.498;32.260;2022-11-20T12:58:44;14.32;;;9.25;;
45318;SDS011;31057;48.498;32.260;2022-11-20T13:01:04;20.77;;;15.25;;
45318;SDS011;31057;48.498;32.260;2022-11-20T13:03:38;29.48;;;18.98;;
45318;SDS011;31057;48.498;32.260;2022-11-20T13:08:06;28.05;;;16.67;;
45318;SDS011;31057;48.498;32.260;2022-11-20T13:13:03;25.38;;;15.70;;
45318;SDS011;31057;48.498;32.260;2022-11-20T13:17:41;28.70;;;15.98;;
45318;SDS011;31057;48.498;32.260;2022-11-20T13:19:49;24.50;;;15.82;;
45318;SDS011;31057;48.498;32.260;2022-11-20T13:21:54;27.27;;;18.88;;
45318;SDS011;31057;48.498;32.260;2022-11-20T13:24:03;32.05;;;19.75;;
45318;SDS011;31057;48.498;32.260;2022-11-20T13:26:14;25.25;;;16.40;;
45318;SDS011;31057;48.498;32.260;2022-11-20T13:30:20;21.08;;;13.70;;
45318;SDS011;31057;48.498;32.260;2022-11-20T13:32:26;25.23;;;16.38;;
45318;SDS011;31057;48.498;32.260;2022-11-20T13:34:33;13.13;;;9.63;;
45318;SDS011;31057;48.498;32.260;2022-11-20T13:36:37;23.98;;;14.43;;
45318;SDS011;31057;48.498;32.260;2022-11-20T13:38:54;15.93;;;11.40;;
45318;SDS011;31057;48.498;32.260;2022-11-20T13:40:58;23.05;;;14.65;;
45318;SDS011;31057;48.498;32.260;2022-11-20T13:43:22;21.60;;;15.40;;
45318;SDS011;31057;48.498;32.260;2022-11-20T13:45:28;16.75;;;11.20;;
45318;SDS011;31057;48.498;32.260;2022-11-20T13:47:33;20.60;;;14.30;;
45318;SDS011;31057;48.498;32.260;2022-11-20T13:49:37;20.92;;;14.65;;
45318;SDS011;31057;48.498;32.260;2022-11-20T13:51:50;17.45;;;10.38;;
45318;SDS011;31057;48.498;32.260;2022-11-20T13:54:01;18.83;;;10.82;;
45318;SDS011;31057;48.498;32.260;2022-11-20T13:56:24;19.75;;;12.73;;
45318;SDS011;31057;48.498;32.260;2022-11-20T14:00:57;16.48;;;11.52;;
45318;SDS011;31057;48.498;32.260;2022-11-20T14:03:13;22.13;;;15.02;;
45318;SDS011;31057;48.498;32.260;2022-11-20T14:05:19;22.60;;;15.60;;
45318;SDS011;31057;48.498;32.260;2022-11-20T14:07:24;24.98;;;16.23;;
45318;SDS011;31057;48.498;32.260;2022-11-20T14:09:33;22.95;;;16.08;;
45318;SDS011;31057;48.498;32.260;2022-11-20T14:11:35;24.83;;;15.90;;
45318;SDS011;31057;48.498;32.260;2022-11-20T14:13:37;31.52;;;20.17;;
45318;SDS011;31057;48.498;32.260;2022-11-20T14:15:39;24.73;;;18.10;;
45318;SDS011;31057;48.498;32.260;2022-11-20T14:17:45;32.65;;;18.50;;
45318;SDS011;31057;48.498;32.260;2022-11-20T14:19:48;25.60;;;16.98;;
45318;SDS011;31057;48.498;32.260;2022-11-20T14:21:53;23.85;;;16.63;;
45318;SDS011;31057;48.498;32.260;2022-11-20T14:24:09;30.20;;;16.10;;
45318;SDS011;31057;48.498;32.260;2022-11-20T14:26:14;22.58;;;14.48;;
45318;SDS011;31057;48.498;32.260;2022-11-20T14:28:24;21.48;;;14.82;;